Ocean Fresh — LAEZ7 — position and weather

sailwx.info

Track history (hours):
 
Tides and Currents Weather Stations Pressure Air Temp Water Temp Dewpoint Dewpoint Depression Visibility Wind Speed Wind Dir Waves Ship Positions

Ocean Fresh

Last reported at 2017-Nov-11 13:32 UTC. Time now 2017-Nov-20 02:15 UTC.
Position N 25°05' W 016°11'.
Warning: this ship's position is 8 days out of date.

; draft 6.7 m.

Type: Other ship. MMSI: 259758000.

Date/timePositionNaut miles runAvg speedWind from/ knotsBaromVisibWave heightAir tempDewpointWater temp
2017-Nov-11 13:32N 25°05' W 016°11'0 8.1
2017-Nov-11 13:30N 25°05' W 016°11'5 8.2
2017-Nov-11 12:53N 25°10' W 016°09'4 7.9
2017-Nov-11 12:26N 25°14' W 016°08'10 7.5
2017-Nov-11 11:03N 25°24' W 016°05'16 7.4
2017-Nov-11 08:50N 25°39' W 015°59'2 7.7
2017-Nov-11 08:30N 25°42' W 015°58'7 7.7
2017-Nov-11 07:38N 25°48' W 015°56'27 8.0
2017-Nov-11 04:17N 26°14' W 015°48'2 8.2
2017-Nov-11 04:00N 26°16' W 015°47'89 8.5
2017-Nov-10 17:34N 27°41' W 015°19'1 7.8
2017-Nov-10 17:24N 27°43' W 015°18'3 7.6
2017-Nov-10 17:01N 27°45' W 015°17'4 7.3
2017-Nov-10 16:31N 27°49' W 015°17'4 7.4
2017-Nov-10 16:01N 27°53' W 015°17'4 7.8
2017-Nov-10 15:30N 27°57' W 015°17'4 7.4
2017-Nov-10 15:00N 28°00' W 015°19'4 7.4
2017-Nov-10 14:30N 28°03' W 015°21'4 7.2
2017-Nov-10 14:00N 28°06' W 015°23'3 5.5
2017-Nov-10 13:30N 28°08' W 015°25'0 0.2
2017-Nov-10 12:52N 28°08' W 015°25'0 0.0
2017-Nov-10 12:22N 28°08' W 015°25'0 0.0
2017-Nov-10 11:52N 28°08' W 015°25'0 0.0
2017-Nov-10 11:22N 28°08' W 015°25'0 0.0
2017-Nov-10 10:52N 28°08' W 015°25'0 0.0
2017-Nov-10 10:22N 28°08' W 015°25'0 0.0
2017-Nov-10 09:55N 28°08' W 015°25'0 0.0
2017-Nov-10 09:25N 28°08' W 015°25'0 0.0
2017-Nov-10 08:55N 28°08' W 015°25'0 0.0
2017-Nov-10 08:25N 28°08' W 015°25'0 0.0
2017-Nov-10 07:58N 28°08' W 015°25'0 0.0
2017-Nov-10 07:28N 28°08' W 015°25'0 0.0
2017-Nov-10 06:58N 28°08' W 015°25'0 0.0
2017-Nov-10 06:28N 28°08' W 015°25'0 0.0
2017-Nov-10 05:58N 28°08' W 015°25'0 0.0
2017-Nov-10 05:25N 28°08' W 015°25'0 0.0
2017-Nov-10 04:46N 28°08' W 015°25'0 0.0
2017-Nov-10 04:25N 28°08' W 015°25'0 0.0
2017-Nov-10 03:58N 28°08' W 015°25'0 0.0
2017-Nov-10 03:16N 28°08' W 015°25'0 0.0
2017-Nov-10 02:58N 28°08' W 015°25'0 0.0
2017-Nov-10 02:28N 28°08' W 015°25'0 0.0
2017-Nov-10 01:58N 28°08' W 015°25'0 0.0
2017-Nov-10 01:28N 28°08' W 015°25'0 0.0
2017-Nov-10 00:49N 28°08' W 015°25'0 0.0
2017-Nov-10 00:04N 28°08' W 015°25'0 0.0
2017-Nov-09 23:49N 28°08' W 015°25'0 0.0
2017-Nov-09 23:22N 28°08' W 015°25'0 0.0
2017-Nov-09 22:49N 28°08' W 015°25'0 0.0
2017-Nov-09 22:22N 28°08' W 015°25'0 0.0
2017-Nov-09 21:37N 28°08' W 015°25'0 0.0
2017-Nov-09 21:22N 28°08' W 015°25'0 0.0
2017-Nov-09 20:55N 28°08' W 015°25'0 0.0
2017-Nov-09 20:25N 28°08' W 015°25'0 0.0
2017-Nov-09 19:55N 28°08' W 015°25'0 0.0
2017-Nov-09 19:25N 28°08' W 015°25'0 0.0
2017-Nov-09 18:55N 28°08' W 015°25'0 0.0
2017-Nov-09 18:22N 28°08' W 015°25'0 0.0
2017-Nov-09 17:58N 28°08' W 015°25'0 0.0
2017-Nov-09 17:28N 28°08' W 015°25'0 0.0
2017-Nov-09 16:55N 28°08' W 015°25'0 0.0
2017-Nov-09 16:28N 28°08' W 015°25'0 0.0
2017-Nov-09 15:55N 28°08' W 015°25'0 0.0
2017-Nov-09 15:28N 28°08' W 015°25'0 0.0
2017-Nov-09 14:58N 28°08' W 015°25'0 0.0
2017-Nov-09 14:28N 28°08' W 015°25'0 0.0
2017-Nov-09 13:55N 28°08' W 015°25'0 0.0
2017-Nov-09 13:28N 28°08' W 015°25'0 0.0
2017-Nov-09 12:58N 28°08' W 015°25'0 0.0
2017-Nov-09 12:28N 28°08' W 015°25'0 0.0
2017-Nov-09 11:58N 28°08' W 015°25'0 0.0
2017-Nov-09 11:28N 28°08' W 015°25'0 0.0
2017-Nov-09 10:58N 28°08' W 015°25'0 0.0
2017-Nov-09 10:28N 28°08' W 015°25'0 0.0
2017-Nov-09 09:49N 28°08' W 015°25'0 0.0
2017-Nov-09 09:19N 28°08' W 015°25'0 0.0
2017-Nov-09 08:52N 28°08' W 015°25'0 0.0
2017-Nov-09 08:22N 28°08' W 015°25'0 0.0
2017-Nov-09 07:52N 28°08' W 015°25'0 0.0
2017-Nov-09 07:19N 28°08' W 015°25'0 0.0
2017-Nov-09 06:52N 28°08' W 015°25'0 0.0
2017-Nov-09 06:22N 28°08' W 015°25'0 0.0
2017-Nov-09 05:55N 28°08' W 015°25'0 0.0
2017-Nov-09 05:25N 28°08' W 015°25'0 0.0
2017-Nov-09 04:55N 28°08' W 015°25'0 0.0
2017-Nov-09 04:25N 28°08' W 015°25'0 0.0
2017-Nov-09 03:55N 28°08' W 015°25'0 0.0
2017-Nov-09 03:22N 28°08' W 015°25'0 0.0
2017-Nov-09 02:58N 28°08' W 015°25'0 0.0
2017-Nov-09 02:28N 28°08' W 015°25'0 0.0
2017-Nov-09 01:58N 28°08' W 015°25'0 0.0
2017-Nov-09 01:28N 28°08' W 015°25'0 0.0
2017-Nov-09 00:58N 28°08' W 015°25'0 0.0
2017-Nov-09 00:28N 28°08' W 015°25'0 0.0
2017-Nov-08 23:58N 28°08' W 015°25'0 0.0
2017-Nov-08 23:28N 28°08' W 015°25'0 0.0
2017-Nov-08 22:58N 28°08' W 015°25'0 0.0
2017-Nov-08 22:28N 28°08' W 015°25'0 0.0
2017-Nov-08 21:58N 28°08' W 015°25'0 0.0
2017-Nov-08 21:28N 28°08' W 015°25'0 0.0
2017-Nov-08 20:58N 28°08' W 015°25'0 0.0
2017-Nov-08 20:28N 28°08' W 015°25'0 0.0
2017-Nov-08 19:46N 28°08' W 015°25'0 0.0
2017-Nov-08 19:19N 28°08' W 015°25'0 0.0
2017-Nov-08 18:49N 28°08' W 015°25'0 0.0
2017-Nov-08 18:22N 28°08' W 015°25'0 0.0
2017-Nov-08 17:52N 28°08' W 015°25'0 0.0
2017-Nov-08 17:22N 28°08' W 015°25'0 0.0
2017-Nov-08 16:52N 28°08' W 015°25'0 0.0
2017-Nov-08 16:22N 28°08' W 015°25'0 0.0
2017-Nov-08 15:49N 28°08' W 015°25'0 0.0
2017-Nov-08 15:25N 28°08' W 015°25'0 0.0
2017-Nov-08 14:55N 28°08' W 015°25'0 0.0
2017-Nov-08 14:25N 28°08' W 015°25'0 0.0
2017-Nov-08 13:55N 28°08' W 015°25'0 0.0
2017-Nov-08 13:25N 28°08' W 015°25'0 0.0
2017-Nov-08 12:58N 28°08' W 015°25'0 0.0
2017-Nov-08 12:28N 28°08' W 015°25'0 0.0
2017-Nov-08 11:58N 28°08' W 015°25'0 0.0
2017-Nov-08 11:13N 28°08' W 015°25'0 0.0
2017-Nov-08 10:58N 28°08' W 015°25'0 0.0
2017-Nov-08 10:25N 28°08' W 015°25'0 0.0
2017-Nov-08 09:58N 28°08' W 015°25'0 0.0
2017-Nov-08 09:28N 28°08' W 015°25'0 0.0
2017-Nov-08 08:58N 28°08' W 015°25'0 0.0
2017-Nov-08 08:28N 28°08' W 015°25'0 0.0
2017-Nov-08 07:58N 28°08' W 015°25'0 0.0
2017-Nov-08 07:28N 28°08' W 015°25'0 0.0
2017-Nov-08 06:58N 28°08' W 015°25'0 0.0
2017-Nov-08 06:28N 28°08' W 015°25'0 0.0
2017-Nov-08 05:58N 28°08' W 015°25'0 0.0
2017-Nov-08 05:19N 28°08' W 015°25'0 0.0
2017-Nov-08 04:46N 28°08' W 015°25'0 0.0
2017-Nov-08 04:22N 28°08' W 015°25'0 0.0
2017-Nov-08 03:52N 28°08' W 015°25'0 0.0
2017-Nov-08 03:22N 28°08' W 015°25'0 0.0
2017-Nov-08 02:52N 28°08' W 015°25'0 0.0
2017-Nov-08 02:22N 28°08' W 015°25'0 0.0
2017-Nov-08 01:52N 28°08' W 015°25'0 0.0
2017-Nov-08 01:25N 28°08' W 015°25'0 0.0
2017-Nov-08 00:55N 28°08' W 015°25'0 0.0
2017-Nov-08 00:22N 28°08' W 015°25'0 0.0
2017-Nov-07 23:55N 28°08' W 015°25'0 0.0
2017-Nov-07 23:25N 28°08' W 015°25'0 0.0
2017-Nov-07 22:55N 28°08' W 015°25'0 0.0
2017-Nov-07 22:28N 28°08' W 015°25'0 0.0
2017-Nov-07 21:58N 28°08' W 015°25'0 0.0
2017-Nov-07 21:28N 28°08' W 015°25'0 0.0
2017-Nov-07 20:55N 28°08' W 015°25'0 0.0
2017-Nov-07 20:28N 28°08' W 015°25'0 0.0
2017-Nov-07 19:55N 28°08' W 015°25'0 0.0
2017-Nov-07 19:28N 28°08' W 015°25'0 0.0
2017-Nov-07 18:58N 28°08' W 015°25'0 0.0
2017-Nov-07 18:28N 28°08' W 015°25'0 0.0
2017-Nov-07 17:58N 28°08' W 015°25'0 0.0
2017-Nov-07 17:28N 28°08' W 015°25'0 0.0
2017-Nov-07 16:58N 28°08' W 015°25'0 0.0
2017-Nov-07 16:28N 28°08' W 015°25'0 0.0
2017-Nov-07 15:58N 28°08' W 015°25'0 0.0
2017-Nov-07 15:19N 28°08' W 015°25'0 0.0
2017-Nov-07 14:49N 28°08' W 015°25'0 0.0
2017-Nov-07 14:19N 28°08' W 015°25'0 0.0
2017-Nov-07 13:52N 28°08' W 015°25'0 0.0
2017-Nov-07 13:22N 28°08' W 015°25'0 0.0
2017-Nov-07 12:52N 28°08' W 015°25'0 0.0
2017-Nov-07 12:22N 28°08' W 015°25'0 0.0
2017-Nov-07 11:52N 28°08' W 015°25'0 0.0
2017-Nov-07 11:22N 28°08' W 015°25'0 0.0
2017-Nov-07 10:55N 28°08' W 015°25'0 0.0
2017-Nov-07 10:25N 28°08' W 015°25'0 0.0
2017-Nov-07 09:55N 28°08' W 015°25'0 0.0
2017-Nov-07 09:25N 28°08' W 015°25'0 0.0
2017-Nov-07 08:55N 28°08' W 015°25'0 0.0
2017-Nov-07 08:25N 28°08' W 015°25'0 0.0
2017-Nov-07 07:58N 28°08' W 015°25'0 0.0
2017-Nov-07 07:28N 28°08' W 015°25'0 0.0
2017-Nov-07 06:58N 28°08' W 015°25'0 0.0
2017-Nov-07 06:28N 28°08' W 015°25'0 0.0
2017-Nov-07 05:58N 28°08' W 015°25'0 0.0
2017-Nov-07 05:28N 28°08' W 015°25'0 0.0
2017-Nov-07 04:58N 28°08' W 015°25'0 0.0
2017-Nov-07 04:25N 28°08' W 015°25'0 0.0
2017-Nov-07 03:58N 28°08' W 015°25'0 0.0
2017-Nov-07 03:28N 28°08' W 015°25'0 0.0
2017-Nov-07 02:58N 28°08' W 015°25'0 0.0
2017-Nov-07 02:28N 28°08' W 015°25'0 0.0
2017-Nov-07 01:58N 28°08' W 015°25'0 0.0
2017-Nov-07 01:28N 28°08' W 015°25'0 0.0
2017-Nov-07 00:46N 28°08' W 015°25'0 0.0
2017-Nov-07 00:19N 28°08' W 015°25'0 0.0
2017-Nov-06 23:49N 28°08' W 015°25'0 0.0
2017-Nov-06 23:19N 28°08' W 015°25'0 0.0
2017-Nov-06 22:52N 28°08' W 015°25'0 0.0
2017-Nov-06 22:22N 28°08' W 015°25'0 0.0
2017-Nov-06 21:52N 28°08' W 015°25'0 0.0
2017-Nov-06 21:22N 28°08' W 015°25'0 0.0
2017-Nov-06 20:55N 28°08' W 015°25'0 0.0
2017-Nov-06 20:25N 28°08' W 015°25'25 1.4
2017-Nov-06 02:30N 27°44' W 015°18'1 2.4
2017-Nov-06 01:57N 27°43' W 015°18'1 2.0
2017-Nov-06 01:29N 27°42' W 015°18'  
Track history (hours):
 
Tides and Currents Weather Stations Pressure Air Temp Water Temp Dewpoint Dewpoint Depression Visibility Wind Speed Wind Dir Waves Ship Positions

Ocean Fresh

Last reported at 2017-Nov-11 13:32 UTC. Time now 2017-Nov-20 02:15 UTC.
Position N 25°05' W 016°11'.
Warning: this ship's position is 8 days out of date.

; draft 6.7 m.

Type: Other ship. MMSI: 259758000.

Date/timePositionNaut miles runAvg speedWind from/ knotsBaromVisibWave heightAir tempDewpointWater temp
2017-Nov-11 13:32N 25°05' W 016°11'0 8.1
2017-Nov-11 13:30N 25°05' W 016°11'5 8.2
2017-Nov-11 12:53N 25°10' W 016°09'4 7.9
2017-Nov-11 12:26N 25°14' W 016°08'10 7.5
2017-Nov-11 11:03N 25°24' W 016°05'16 7.4
2017-Nov-11 08:50N 25°39' W 015°59'2 7.7
2017-Nov-11 08:30N 25°42' W 015°58'7 7.7
2017-Nov-11 07:38N 25°48' W 015°56'27 8.0
2017-Nov-11 04:17N 26°14' W 015°48'2 8.2
2017-Nov-11 04:00N 26°16' W 015°47'89 8.5
2017-Nov-10 17:34N 27°41' W 015°19'1 7.8
2017-Nov-10 17:24N 27°43' W 015°18'3 7.6
2017-Nov-10 17:01N 27°45' W 015°17'4 7.3
2017-Nov-10 16:31N 27°49' W 015°17'4 7.4
2017-Nov-10 16:01N 27°53' W 015°17'4 7.8
2017-Nov-10 15:30N 27°57' W 015°17'4 7.4
2017-Nov-10 15:00N 28°00' W 015°19'4 7.4
2017-Nov-10 14:30N 28°03' W 015°21'4 7.2
2017-Nov-10 14:00N 28°06' W 015°23'3 5.5
2017-Nov-10 13:30N 28°08' W 015°25'0 0.2
2017-Nov-10 12:52N 28°08' W 015°25'0 0.0
2017-Nov-10 12:22N 28°08' W 015°25'0 0.0
2017-Nov-10 11:52N 28°08' W 015°25'0 0.0
2017-Nov-10 11:22N 28°08' W 015°25'0 0.0
2017-Nov-10 10:52N 28°08' W 015°25'0 0.0
2017-Nov-10 10:22N 28°08' W 015°25'0 0.0
2017-Nov-10 09:55N 28°08' W 015°25'0 0.0
2017-Nov-10 09:25N 28°08' W 015°25'0 0.0
2017-Nov-10 08:55N 28°08' W 015°25'0 0.0
2017-Nov-10 08:25N 28°08' W 015°25'0 0.0
2017-Nov-10 07:58N 28°08' W 015°25'0 0.0
2017-Nov-10 07:28N 28°08' W 015°25'0 0.0
2017-Nov-10 06:58N 28°08' W 015°25'0 0.0
2017-Nov-10 06:28N 28°08' W 015°25'0 0.0
2017-Nov-10 05:58N 28°08' W 015°25'0 0.0
2017-Nov-10 05:25N 28°08' W 015°25'0 0.0
2017-Nov-10 04:46N 28°08' W 015°25'0 0.0
2017-Nov-10 04:25N 28°08' W 015°25'0 0.0
2017-Nov-10 03:58N 28°08' W 015°25'0 0.0
2017-Nov-10 03:16N 28°08' W 015°25'0 0.0
2017-Nov-10 02:58N 28°08' W 015°25'0 0.0
2017-Nov-10 02:28N 28°08' W 015°25'0 0.0
2017-Nov-10 01:58N 28°08' W 015°25'0 0.0
2017-Nov-10 01:28N 28°08' W 015°25'0 0.0
2017-Nov-10 00:49N 28°08' W 015°25'0 0.0
2017-Nov-10 00:04N 28°08' W 015°25'0 0.0
2017-Nov-09 23:49N 28°08' W 015°25'0 0.0
2017-Nov-09 23:22N 28°08' W 015°25'0 0.0
2017-Nov-09 22:49N 28°08' W 015°25'0 0.0
2017-Nov-09 22:22N 28°08' W 015°25'0 0.0
2017-Nov-09 21:37N 28°08' W 015°25'0 0.0
2017-Nov-09 21:22N 28°08' W 015°25'0 0.0
2017-Nov-09 20:55N 28°08' W 015°25'0 0.0
2017-Nov-09 20:25N 28°08' W 015°25'0 0.0
2017-Nov-09 19:55N 28°08' W 015°25'0 0.0
2017-Nov-09 19:25N 28°08' W 015°25'0 0.0
2017-Nov-09 18:55N 28°08' W 015°25'0 0.0
2017-Nov-09 18:22N 28°08' W 015°25'0 0.0
2017-Nov-09 17:58N 28°08' W 015°25'0 0.0
2017-Nov-09 17:28N 28°08' W 015°25'0 0.0
2017-Nov-09 16:55N 28°08' W 015°25'0 0.0
2017-Nov-09 16:28N 28°08' W 015°25'0 0.0
2017-Nov-09 15:55N 28°08' W 015°25'0 0.0
2017-Nov-09 15:28N 28°08' W 015°25'0 0.0
2017-Nov-09 14:58N 28°08' W 015°25'0 0.0
2017-Nov-09 14:28N 28°08' W 015°25'0 0.0
2017-Nov-09 13:55N 28°08' W 015°25'0 0.0
2017-Nov-09 13:28N 28°08' W 015°25'0 0.0
2017-Nov-09 12:58N 28°08' W 015°25'0 0.0
2017-Nov-09 12:28N 28°08' W 015°25'0 0.0
2017-Nov-09 11:58N 28°08' W 015°25'0 0.0
2017-Nov-09 11:28N 28°08' W 015°25'0 0.0
2017-Nov-09 10:58N 28°08' W 015°25'0 0.0
2017-Nov-09 10:28N 28°08' W 015°25'0 0.0
2017-Nov-09 09:49N 28°08' W 015°25'0 0.0
2017-Nov-09 09:19N 28°08' W 015°25'0 0.0
2017-Nov-09 08:52N 28°08' W 015°25'0 0.0
2017-Nov-09 08:22N 28°08' W 015°25'0 0.0
2017-Nov-09 07:52N 28°08' W 015°25'0 0.0
2017-Nov-09 07:19N 28°08' W 015°25'0 0.0
2017-Nov-09 06:52N 28°08' W 015°25'0 0.0
2017-Nov-09 06:22N 28°08' W 015°25'0 0.0
2017-Nov-09 05:55N 28°08' W 015°25'0 0.0
2017-Nov-09 05:25N 28°08' W 015°25'0 0.0
2017-Nov-09 04:55N 28°08' W 015°25'0 0.0
2017-Nov-09 04:25N 28°08' W 015°25'0 0.0
2017-Nov-09 03:55N 28°08' W 015°25'0 0.0
2017-Nov-09 03:22N 28°08' W 015°25'0 0.0
2017-Nov-09 02:58N 28°08' W 015°25'0 0.0
2017-Nov-09 02:28N 28°08' W 015°25'0 0.0
2017-Nov-09 01:58N 28°08' W 015°25'0 0.0
2017-Nov-09 01:28N 28°08' W 015°25'0 0.0
2017-Nov-09 00:58N 28°08' W 015°25'0 0.0
2017-Nov-09 00:28N 28°08' W 015°25'0 0.0
2017-Nov-08 23:58N 28°08' W 015°25'0 0.0
2017-Nov-08 23:28N 28°08' W 015°25'0 0.0
2017-Nov-08 22:58N 28°08' W 015°25'0 0.0
2017-Nov-08 22:28N 28°08' W 015°25'0 0.0
2017-Nov-08 21:58N 28°08' W 015°25'0 0.0
2017-Nov-08 21:28N 28°08' W 015°25'0 0.0
2017-Nov-08 20:58N 28°08' W 015°25'0 0.0
2017-Nov-08 20:28N 28°08' W 015°25'0 0.0
2017-Nov-08 19:46N 28°08' W 015°25'0 0.0
2017-Nov-08 19:19N 28°08' W 015°25'0 0.0
2017-Nov-08 18:49N 28°08' W 015°25'0 0.0
2017-Nov-08 18:22N 28°08' W 015°25'0 0.0
2017-Nov-08 17:52N 28°08' W 015°25'0 0.0
2017-Nov-08 17:22N 28°08' W 015°25'0 0.0
2017-Nov-08 16:52N 28°08' W 015°25'0 0.0
2017-Nov-08 16:22N 28°08' W 015°25'0 0.0
2017-Nov-08 15:49N 28°08' W 015°25'0 0.0
2017-Nov-08 15:25N 28°08' W 015°25'0 0.0
2017-Nov-08 14:55N 28°08' W 015°25'0 0.0
2017-Nov-08 14:25N 28°08' W 015°25'0 0.0
2017-Nov-08 13:55N 28°08' W 015°25'0 0.0
2017-Nov-08 13:25N 28°08' W 015°25'0 0.0
2017-Nov-08 12:58N 28°08' W 015°25'0 0.0
2017-Nov-08 12:28N 28°08' W 015°25'0 0.0
2017-Nov-08 11:58N 28°08' W 015°25'0 0.0
2017-Nov-08 11:13N 28°08' W 015°25'0 0.0
2017-Nov-08 10:58N 28°08' W 015°25'0 0.0
2017-Nov-08 10:25N 28°08' W 015°25'0 0.0
2017-Nov-08 09:58N 28°08' W 015°25'0 0.0
2017-Nov-08 09:28N 28°08' W 015°25'0 0.0
2017-Nov-08 08:58N 28°08' W 015°25'0 0.0
2017-Nov-08 08:28N 28°08' W 015°25'0 0.0
2017-Nov-08 07:58N 28°08' W 015°25'0 0.0
2017-Nov-08 07:28N 28°08' W 015°25'0 0.0
2017-Nov-08 06:58N 28°08' W 015°25'0 0.0
2017-Nov-08 06:28N 28°08' W 015°25'0 0.0
2017-Nov-08 05:58N 28°08' W 015°25'0 0.0
2017-Nov-08 05:19N 28°08' W 015°25'0 0.0
2017-Nov-08 04:46N 28°08' W 015°25'0 0.0
2017-Nov-08 04:22N 28°08' W 015°25'0 0.0
2017-Nov-08 03:52N 28°08' W 015°25'0 0.0
2017-Nov-08 03:22N 28°08' W 015°25'0 0.0
2017-Nov-08 02:52N 28°08' W 015°25'0 0.0
2017-Nov-08 02:22N 28°08' W 015°25'0 0.0
2017-Nov-08 01:52N 28°08' W 015°25'0 0.0
2017-Nov-08 01:25N 28°08' W 015°25'0 0.0
2017-Nov-08 00:55N 28°08' W 015°25'0 0.0
2017-Nov-08 00:22N 28°08' W 015°25'0 0.0
2017-Nov-07 23:55N 28°08' W 015°25'0 0.0
2017-Nov-07 23:25N 28°08' W 015°25'0 0.0
2017-Nov-07 22:55N 28°08' W 015°25'0 0.0
2017-Nov-07 22:28N 28°08' W 015°25'0 0.0
2017-Nov-07 21:58N 28°08' W 015°25'0 0.0
2017-Nov-07 21:28N 28°08' W 015°25'0 0.0
2017-Nov-07 20:55N 28°08' W 015°25'0 0.0
2017-Nov-07 20:28N 28°08' W 015°25'0 0.0
2017-Nov-07 19:55N 28°08' W 015°25'0 0.0
2017-Nov-07 19:28N 28°08' W 015°25'0 0.0
2017-Nov-07 18:58N 28°08' W 015°25'0 0.0
2017-Nov-07 18:28N 28°08' W 015°25'0 0.0
2017-Nov-07 17:58N 28°08' W 015°25'0 0.0
2017-Nov-07 17:28N 28°08' W 015°25'0 0.0
2017-Nov-07 16:58N 28°08' W 015°25'0 0.0
2017-Nov-07 16:28N 28°08' W 015°25'0 0.0
2017-Nov-07 15:58N 28°08' W 015°25'0 0.0
2017-Nov-07 15:19N 28°08' W 015°25'0 0.0
2017-Nov-07 14:49N 28°08' W 015°25'0 0.0
2017-Nov-07 14:19N 28°08' W 015°25'0 0.0
2017-Nov-07 13:52N 28°08' W 015°25'0 0.0
2017-Nov-07 13:22N 28°08' W 015°25'0 0.0
2017-Nov-07 12:52N 28°08' W 015°25'0 0.0
2017-Nov-07 12:22N 28°08' W 015°25'0 0.0
2017-Nov-07 11:52N 28°08' W 015°25'0 0.0
2017-Nov-07 11:22N 28°08' W 015°25'0 0.0
2017-Nov-07 10:55N 28°08' W 015°25'0 0.0
2017-Nov-07 10:25N 28°08' W 015°25'0 0.0
2017-Nov-07 09:55N 28°08' W 015°25'0 0.0
2017-Nov-07 09:25N 28°08' W 015°25'0 0.0
2017-Nov-07 08:55N 28°08' W 015°25'0 0.0
2017-Nov-07 08:25N 28°08' W 015°25'0 0.0
2017-Nov-07 07:58N 28°08' W 015°25'0 0.0
2017-Nov-07 07:28N 28°08' W 015°25'0 0.0
2017-Nov-07 06:58N 28°08' W 015°25'0 0.0
2017-Nov-07 06:28N 28°08' W 015°25'0 0.0
2017-Nov-07 05:58N 28°08' W 015°25'0 0.0
2017-Nov-07 05:28N 28°08' W 015°25'0 0.0
2017-Nov-07 04:58N 28°08' W 015°25'0 0.0
2017-Nov-07 04:25N 28°08' W 015°25'0 0.0
2017-Nov-07 03:58N 28°08' W 015°25'0 0.0
2017-Nov-07 03:28N 28°08' W 015°25'0 0.0
2017-Nov-07 02:58N 28°08' W 015°25'0 0.0
2017-Nov-07 02:28N 28°08' W 015°25'0 0.0
2017-Nov-07 01:58N 28°08' W 015°25'0 0.0
2017-Nov-07 01:28N 28°08' W 015°25'0 0.0
2017-Nov-07 00:46N 28°08' W 015°25'0 0.0
2017-Nov-07 00:19N 28°08' W 015°25'0 0.0
2017-Nov-06 23:49N 28°08' W 015°25'0 0.0
2017-Nov-06 23:19N 28°08' W 015°25'0 0.0
2017-Nov-06 22:52N 28°08' W 015°25'0 0.0
2017-Nov-06 22:22N 28°08' W 015°25'0 0.0
2017-Nov-06 21:52N 28°08' W 015°25'0 0.0
2017-Nov-06 21:22N 28°08' W 015°25'0 0.0
2017-Nov-06 20:55N 28°08' W 015°25'0 0.0
2017-Nov-06 20:25N 28°08' W 015°25'25 1.4
2017-Nov-06 02:30N 27°44' W 015°18'1 2.4
2017-Nov-06 01:57N 27°43' W 015°18'1 2.0
2017-Nov-06 01:29N 27°42' W 015°18'  

Dump ship's entire track history